Time;durP1;ratioP1;P1;durP2;ratioP2;P2;SDS_P1;SDS_P2;PMS_P1;PMS_P2;Temp;Humidity;BMP_temperature;BMP_pressure;BME280_temperature;BME280_humidity;BME280_pressure;Samples;Min_cycle;Max_cycle;Signal;HPM_P1;HPM_P2
2021/12/05 00:24:12;;;;;;;23.75;11.88;;;2.30;99.90;;;;;;5022577;28;20182;-74
2021/12/05 00:26:38;;;;;;;22.83;11.35;;;2.30;99.90;;;;;;5024106;28;20217;-75
2021/12/05 00:29:28;;;;;;;21.85;10.80;;;2.30;99.90;;;;;;5021860;28;20095;-74
2021/12/05 00:45:47;;;;;;;19.85;10.95;;;2.20;99.90;;;;;;5015054;28;20160;-73
2021/12/05 00:57:05;;;;;;;19.35;10.18;;;2.20;99.90;;;;;;5008897;28;20038;-74
2021/12/05 00:59:38;;;;;;;19.60;10.60;;;2.20;99.90;;;;;;5019933;28;20026;-74
2021/12/05 01:02:20;;;;;;;18.02;9.70;;;2.20;99.90;;;;;;5026827;28;20108;-74
2021/12/05 01:10:49;;;;;;;18.40;9.68;;;2.20;99.90;;;;;;5015952;28;20061;-73
2021/12/05 01:16:00;;;;;;;15.48;9.27;;;2.30;99.90;;;;;;5016003;28;19933;-74
2021/12/05 01:18:26;;;;;;;17.88;9.73;;;2.30;99.90;;;;;;5022333;28;20515;-74
2021/12/05 01:20:57;;;;;;;14.82;9.15;;;2.30;99.90;;;;;;5018490;28;20025;-74
2021/12/05 01:23:34;;;;;;;17.63;10.07;;;2.30;99.90;;;;;;5021651;28;20018;-74
2021/12/05 01:26:05;;;;;;;16.73;9.82;;;2.30;99.90;;;;;;5017399;28;20030;-74
2021/12/05 01:36:17;;;;;;;19.25;10.88;;;2.30;99.90;;;;;;5017413;28;20919;-74
2021/12/05 01:39:06;;;;;;;16.95;10.20;;;2.30;99.90;;;;;;5002462;28;20133;-74
2021/12/05 02:11:39;;;;;;;20.27;11.10;;;2.10;99.90;;;;;;5022444;28;20218;-74
2021/12/05 02:33:46;;;;;;;24.27;13.27;;;2.20;99.90;;;;;;5015181;28;20022;-73
2021/12/05 02:39:15;;;;;;;25.35;13.88;;;2.20;99.90;;;;;;5017728;28;20630;-73
2021/12/05 02:41:44;;;;;;;23.77;12.85;;;2.30;99.90;;;;;;5017981;28;20033;-73
2021/12/05 02:44:20;;;;;;;25.52;13.45;;;2.30;99.90;;;;;;5019112;28;20017;-73
2021/12/05 02:46:58;;;;;;;25.02;13.98;;;2.30;99.90;;;;;;5018464;28;20053;-74
2021/12/05 02:49:25;;;;;;;23.40;12.80;;;2.30;99.90;;;;;;5011356;28;20029;-74
2021/12/05 02:51:56;;;;;;;26.60;14.27;;;2.20;99.90;;;;;;5019585;28;20399;-74
2021/12/05 02:54:24;;;;;;;25.83;15.00;;;2.30;99.90;;;;;;5024002;28;20101;-74
2021/12/05 02:56:51;;;;;;;26.20;13.68;;;2.30;99.90;;;;;;5019679;28;20379;-74
2021/12/05 03:01:49;;;;;;;29.38;15.50;;;2.30;99.90;;;;;;5020130;28;20026;-74
2021/12/05 03:04:15;;;;;;;25.20;13.00;;;2.30;99.90;;;;;;5013492;28;20026;-74
2021/12/05 03:06:50;;;;;;;26.45;14.68;;;2.30;99.90;;;;;;5012211;28;20289;-74
2021/12/05 03:09:16;;;;;;;28.40;14.27;;;2.30;99.90;;;;;;5015263;28;20366;-74
2021/12/05 03:11:43;;;;;;;26.25;14.18;;;2.30;99.90;;;;;;5020648;28;20029;-74
2021/12/05 03:14:09;;;;;;;25.45;13.05;;;2.30;99.90;;;;;;5027079;28;20455;-74
2021/12/05 03:16:38;;;;;;;29.38;14.48;;;2.30;99.90;;;;;;5015789;28;20101;-73
2021/12/05 03:19:07;;;;;;;27.92;13.93;;;2.30;99.90;;;;;;5017884;28;20434;-74
2021/12/05 03:21:34;;;;;;;27.27;13.80;;;2.30;99.90;;;;;;5017113;28;20657;-74
2021/12/05 03:24:00;;;;;;;29.13;14.30;;;2.30;99.90;;;;;;5019425;28;20037;-74
2021/12/05 03:26:33;;;;;;;28.08;14.73;;;2.30;99.90;;;;;;5017774;28;20096;-74
2021/12/05 03:28:59;;;;;;;33.55;15.73;;;2.30;99.90;;;;;;5019071;28;20022;-74
2021/12/05 03:31:28;;;;;;;33.95;15.73;;;2.30;99.90;;;;;;5019122;28;20026;-74
2021/12/05 03:33:55;;;;;;;31.73;14.55;;;2.30;99.90;;;;;;5021043;28;20032;-74
2021/12/05 03:36:22;;;;;;;36.35;17.48;;;2.30;99.90;;;;;;5019867;28;20022;-74
2021/12/05 03:38:48;;;;;;;28.95;14.85;;;2.40;99.90;;;;;;5017205;28;20091;-74
2021/12/05 03:41:15;;;;;;;33.78;15.65;;;2.40;99.90;;;;;;5012274;28;20120;-74
2021/12/05 03:43:43;;;;;;;31.73;15.65;;;2.40;99.90;;;;;;5023113;28;20112;-74
2021/12/05 03:46:09;;;;;;;31.00;14.88;;;2.40;99.90;;;;;;5025679;28;20044;-74
2021/12/05 03:48:39;;;;;;;27.27;14.43;;;2.40;99.90;;;;;;5017099;28;20041;-74
2021/12/05 03:51:07;;;;;;;33.13;16.02;;;2.40;99.90;;;;;;5004313;28;20022;-74
2021/12/05 03:53:33;;;;;;;31.38;14.93;;;2.40;99.90;;;;;;5019202;28;20085;-74
2021/12/05 03:55:59;;;;;;;31.02;15.88;;;2.30;99.90;;;;;;5011709;28;20030;-74
2021/12/05 03:58:28;;;;;;;29.50;14.45;;;2.30;99.90;;;;;;5020285;28;20022;-74
2021/12/05 04:00:56;;;;;;;33.20;15.32;;;2.40;99.90;;;;;;5015376;28;20025;-73
2021/12/05 04:03:24;;;;;;;35.35;16.15;;;2.40;99.90;;;;;;5023450;28;20391;-73
2021/12/05 04:05:50;;;;;;;30.10;14.98;;;2.40;99.90;;;;;;5021197;28;20050;-74
2021/12/05 04:08:19;;;;;;;36.00;15.20;;;2.40;99.90;;;;;;5016076;28;20060;-74
2021/12/05 04:10:53;;;;;;;35.33;14.75;;;2.40;99.90;;;;;;5016541;28;20017;-73
2021/12/05 04:13:19;;;;;;;31.55;14.52;;;2.40;99.90;;;;;;5016924;28;20029;-74
2021/12/05 04:15:47;;;;;;;34.45;15.32;;;2.40;99.90;;;;;;5012344;28;20033;-74
2021/12/05 04:18:13;;;;;;;33.92;15.05;;;2.30;99.90;;;;;;5018242;28;20029;-75
2021/12/05 04:20:39;;;;;;;41.83;15.98;;;2.30;99.90;;;;;;5018386;28;20022;-74
2021/12/05 04:23:06;;;;;;;31.45;13.95;;;2.30;99.90;;;;;;5018151;28;20033;-74
2021/12/05 04:25:36;;;;;;;35.13;14.75;;;2.30;99.90;;;;;;5018101;28;20026;-73
2021/12/05 04:28:03;;;;;;;41.20;15.68;;;2.40;99.90;;;;;;5014860;28;20142;-74
2021/12/05 04:30:29;;;;;;;34.80;15.32;;;2.40;99.90;;;;;;5025020;28;20079;-73
2021/12/05 04:32:54;;;;;;;39.72;15.38;;;2.40;99.90;;;;;;5014128;28;20037;-74
2021/12/05 04:35:20;;;;;;;32.05;14.82;;;2.40;99.90;;;;;;4997507;28;20029;-74
2021/12/05 04:37:46;;;;;;;39.00;16.35;;;2.40;99.90;;;;;;4996882;28;20540;-74
2021/12/05 04:40:15;;;;;;;38.65;16.08;;;2.40;99.90;;;;;;5021268;28;20108;-73
2021/12/05 04:42:41;;;;;;;44.42;16.88;;;2.40;99.90;;;;;;5012837;28;20156;-74
2021/12/05 04:45:14;;;;;;;38.38;16.40;;;2.40;99.90;;;;;;5014145;28;20328;-74
2021/12/05 04:47:40;;;;;;;34.83;15.15;;;2.40;99.90;;;;;;5009696;28;20030;-73
2021/12/05 04:50:07;;;;;;;34.42;15.75;;;2.40;99.90;;;;;;5014713;28;20032;-73
2021/12/05 04:52:33;;;;;;;32.40;14.85;;;2.40;99.90;;;;;;5019443;28;20026;-74
2021/12/05 04:55:19;;;;;;;39.75;16.00;;;2.40;99.90;;;;;;5019141;28;20029;-73
2021/12/05 04:57:45;;;;;;;38.67;16.58;;;2.40;99.90;;;;;;4929252;29;20132;-74
2021/12/05 05:00:23;;;;;;;39.88;17.02;;;2.40;99.90;;;;;;4939654;29;20159;-74
2021/12/05 05:02:50;;;;;;;35.38;15.27;;;2.40;99.90;;;;;;4939547;28;20039;-74
2021/12/05 05:05:16;;;;;;;40.03;16.73;;;2.40;99.90;;;;;;4937823;29;20086;-74
2021/12/05 05:07:43;;;;;;;39.33;16.40;;;2.40;99.90;;;;;;4939710;29;20031;-74
2021/12/05 05:10:17;;;;;;;35.53;15.10;;;2.40;99.90;;;;;;4939822;29;20061;-74
2021/12/05 05:12:43;;;;;;;40.92;16.52;;;2.40;99.90;;;;;;4946304;28;20542;-74
2021/12/05 05:15:11;;;;;;;38.72;16.15;;;2.50;99.90;;;;;;4940569;29;20643;-74
2021/12/05 05:17:38;;;;;;;42.80;16.67;;;2.50;99.90;;;;;;4941586;29;20031;-74
2021/12/05 05:20:16;;;;;;;38.70;17.02;;;2.50;99.90;;;;;;4939749;29;20536;-74
2021/12/05 05:47:10;;;;;;;35.83;16.92;;;2.40;99.90;;;;;;5021430;28;20099;-73
2021/12/05 05:52:21;;;;;;;35.97;17.55;;;2.40;99.90;;;;;;5020869;28;20052;-74
2021/12/05 05:54:48;;;;;;;42.70;17.40;;;2.40;99.90;;;;;;5000257;28;20057;-73
2021/12/05 05:57:28;;;;;;;34.05;15.20;;;2.40;99.90;;;;;;5002049;28;20025;-73
2021/12/05 06:00:08;;;;;;;38.30;16.45;;;2.40;99.90;;;;;;5023176;28;20037;-73
2021/12/05 06:05:18;;;;;;;36.40;14.95;;;2.40;99.90;;;;;;5001500;28;20057;-75
2021/12/05 06:07:46;;;;;;;36.28;15.50;;;2.40;99.90;;;;;;5020042;28;20100;-75
2021/12/05 06:10:18;;;;;;;37.90;16.60;;;2.40;99.90;;;;;;5018012;28;20480;-74
2021/12/05 06:12:44;;;;;;;32.13;14.68;;;2.30;99.90;;;;;;5024623;28;20049;-74
2021/12/05 06:15:12;;;;;;;32.78;14.98;;;2.30;99.90;;;;;;5018917;28;20044;-75
2021/12/05 06:17:39;;;;;;;31.65;13.82;;;2.30;99.90;;;;;;5017421;28;20032;-75
2021/12/05 06:20:16;;;;;;;32.70;14.60;;;2.40;99.90;;;;;;5022229;28;20038;-75
2021/12/05 06:22:46;;;;;;;30.30;14.13;;;2.40;99.90;;;;;;5017366;28;20026;-75
2021/12/05 06:25:19;;;;;;;32.33;14.68;;;2.30;99.90;;;;;;5023548;28;20079;-75
2021/12/05 06:27:45;;;;;;;32.03;14.77;;;2.40;99.90;;;;;;5023235;28;20389;-75
2021/12/05 06:39:00;;;;;;;30.45;14.18;;;2.40;99.90;;;;;;5013600;28;20037;-74
2021/12/05 06:46:54;;;;;;;28.58;14.13;;;2.40;99.90;;;;;;5020079;28;20055;-74
2021/12/05 06:49:20;;;;;;;26.38;13.43;;;2.40;99.90;;;;;;5019895;28;20487;-75
2021/12/05 06:51:45;;;;;;;29.95;14.98;;;2.40;99.90;;;;;;5019568;28;20026;-74
2021/12/05 06:54:11;;;;;;;29.73;13.20;;;2.40;99.90;;;;;;5010107;28;20025;-75
2021/12/05 06:56:37;;;;;;;28.45;13.00;;;2.40;99.90;;;;;;5012108;28;20038;-75
2021/12/05 06:59:03;;;;;;;27.83;13.82;;;2.40;99.90;;;;;;5020921;28;20511;-75
2021/12/05 07:01:29;;;;;;;27.55;13.52;;;2.40;99.90;;;;;;5019846;28;20108;-75
2021/12/05 07:03:56;;;;;;;24.85;12.82;;;2.30;99.90;;;;;;5020333;28;20630;-75
2021/12/05 07:06:30;;;;;;;30.70;13.98;;;2.40;99.90;;;;;;5019474;28;20037;-75
2021/12/05 07:09:07;;;;;;;26.63;13.35;;;2.40;99.90;;;;;;5016489;28;20059;-75
2021/12/05 07:11:46;;;;;;;23.90;12.73;;;2.30;99.90;;;;;;5014497;28;20037;-75
2021/12/05 07:17:07;;;;;;;23.40;12.57;;;2.30;99.90;;;;;;5029619;28;20034;-74
2021/12/05 07:22:15;;;;;;;28.38;13.63;;;2.30;99.90;;;;;;5014180;28;20033;-74
2021/12/05 07:24:46;;;;;;;26.55;14.02;;;2.30;99.90;;;;;;5017562;28;20086;-75
2021/12/05 07:41:02;;;;;;;27.20;13.10;;;2.30;99.90;;;;;;5014085;28;20029;-75
2021/12/05 07:43:28;;;;;;;23.60;13.07;;;2.30;99.90;;;;;;5017685;28;20028;-75
2021/12/05 07:45:57;;;;;;;24.27;13.00;;;2.30;99.90;;;;;;5019224;28;20104;-74
2021/12/05 07:48:31;;;;;;;21.80;12.73;;;2.30;99.90;;;;;;5017010;28;20111;-74
2021/12/05 07:51:10;;;;;;;25.65;13.70;;;2.30;99.90;;;;;;5016074;28;20028;-74
2021/12/05 07:56:37;;;;;;;26.27;13.25;;;2.30;99.90;;;;;;5023952;28;20072;-74
2021/12/05 07:59:26;;;;;;;27.25;13.50;;;2.30;99.90;;;;;;5022752;28;20136;-74
2021/12/05 08:15:45;;;;;;;26.25;14.02;;;2.30;99.90;;;;;;5023037;28;20542;-74
2021/12/05 08:18:10;;;;;;;26.45;13.50;;;2.30;99.90;;;;;;4997065;28;20042;-74
2021/12/05 08:20:40;;;;;;;28.25;14.15;;;2.30;99.90;;;;;;5016621;28;20447;-74
2021/12/05 08:23:07;;;;;;;23.85;12.82;;;2.30;99.90;;;;;;4999290;28;20034;-75
2021/12/05 08:25:36;;;;;;;26.52;13.38;;;2.30;99.90;;;;;;5018563;28;20044;-74
2021/12/05 08:30:39;;;;;;;26.85;14.60;;;2.30;99.90;;;;;;5016942;28;20029;-74
2021/12/05 08:46:20;;;;;;;22.10;13.20;;;2.30;99.90;;;;;;5019606;28;20021;-76
2021/12/05 10:20:05;;;;;;;23.15;12.13;;;2.20;99.90;;;;;;5011127;28;20022;-74
2021/12/05 10:34:11;;;;;;;20.35;11.60;;;2.20;99.90;;;;;;5031921;28;20105;-74
2021/12/05 10:36:39;;;;;;;22.05;11.90;;;2.10;99.90;;;;;;5012514;28;20036;-75
2021/12/05 10:39:10;;;;;;;23.95;12.73;;;2.20;99.90;;;;;;5017486;28;20068;-76
2021/12/05 10:44:10;;;;;;;23.40;13.13;;;2.20;99.90;;;;;;5011074;28;20037;-76
2021/12/05 10:46:39;;;;;;;23.80;13.05;;;2.20;99.90;;;;;;4995257;28;20480;-77
2021/12/05 10:49:11;;;;;;;26.85;13.60;;;2.20;99.90;;;;;;5015952;28;20018;-75
2021/12/05 10:51:43;;;;;;;25.15;13.35;;;2.20;99.90;;;;;;5016926;28;20093;-77
2021/12/05 10:54:12;;;;;;;25.98;14.38;;;2.20;99.90;;;;;;5016455;28;20030;-77
2021/12/05 10:57:01;;;;;;;24.15;13.27;;;2.30;99.90;;;;;;4996812;28;20021;-76
2021/12/05 10:59:36;;;;;;;24.33;14.00;;;2.30;99.90;;;;;;5014624;28;20546;-76
2021/12/05 11:02:13;;;;;;;25.55;13.30;;;2.30;99.90;;;;;;5023290;28;20037;-77
2021/12/05 11:04:44;;;;;;;28.45;14.70;;;2.30;99.90;;;;;;5018689;28;20427;-76
2021/12/05 11:07:21;;;;;;;27.45;13.90;;;2.30;99.90;;;;;;5013953;28;20037;-75
2021/12/05 11:09:57;;;;;;;23.88;13.38;;;2.30;99.90;;;;;;5013823;28;20068;-76
2021/12/05 11:12:26;;;;;;;28.05;14.77;;;2.40;99.90;;;;;;5020429;28;20033;-75
2021/12/05 11:15:03;;;;;;;25.88;14.63;;;2.40;99.90;;;;;;5012883;28;20096;-75
2021/12/05 11:17:31;;;;;;;29.02;15.07;;;2.40;99.90;;;;;;5015279;28;20030;-76
2021/12/05 11:20:09;;;;;;;28.40;14.73;;;2.40;99.90;;;;;;5011302;28;20029;-75
2021/12/05 11:22:44;;;;;;;32.38;16.08;;;2.40;99.90;;;;;;5020178;28;20033;-76
2021/12/05 11:25:14;;;;;;;27.95;15.23;;;2.40;99.90;;;;;;5010938;28;20052;-76
2021/12/05 11:27:47;;;;;;;28.23;15.20;;;2.40;99.90;;;;;;5012421;28;20427;-75
2021/12/05 11:30:31;;;;;;;29.52;15.80;;;2.40;99.90;;;;;;5010664;28;20026;-76
2021/12/05 11:33:18;;;;;;;32.22;15.95;;;2.40;99.90;;;;;;5011654;28;20030;-75
2021/12/05 11:36:02;;;;;;;30.85;16.30;;;2.50;99.90;;;;;;5023523;28;20030;-75
2021/12/05 11:38:30;;;;;;;28.15;15.63;;;2.50;99.90;;;;;;5016503;28;20100;-75
2021/12/05 11:40:58;;;;;;;29.58;15.05;;;2.50;99.90;;;;;;5014404;28;20033;-75
2021/12/05 11:43:36;;;;;;;31.38;15.82;;;2.50;99.90;;;;;;5010260;28;20026;-76
2021/12/05 11:46:32;;;;;;;27.15;15.48;;;2.50;99.90;;;;;;5017349;28;20044;-76
2021/12/05 11:49:03;;;;;;;31.88;16.50;;;2.50;99.90;;;;;;5000786;28;20048;-73
2021/12/05 11:51:48;;;;;;;29.35;15.52;;;2.50;99.90;;;;;;5012121;28;20021;-76
2021/12/05 11:54:21;;;;;;;30.92;17.13;;;2.60;99.90;;;;;;5014821;28;20572;-75
2021/12/05 11:56:56;;;;;;;28.77;15.98;;;2.60;99.90;;;;;;5022417;28;20061;-74
2021/12/05 11:59:38;;;;;;;30.08;15.25;;;2.60;99.90;;;;;;5013171;28;20500;-74
2021/12/05 12:02:35;;;;;;;26.48;14.60;;;2.60;99.90;;;;;;5013525;28;20080;-74
2021/12/05 12:05:31;;;;;;;31.23;16.90;;;2.70;99.90;;;;;;5016097;28;20052;-75
2021/12/05 12:08:05;;;;;;;29.27;15.10;;;2.70;99.90;;;;;;5029208;28;20049;-75
2021/12/05 12:10:36;;;;;;;29.60;15.57;;;2.70;99.90;;;;;;5022521;28;20491;-75
2021/12/05 12:13:13;;;;;;;29.35;16.27;;;2.80;99.90;;;;;;5019903;28;20029;-74
2021/12/05 12:15:42;;;;;;;28.58;16.30;;;2.80;99.90;;;;;;5018149;28;20050;-75
2021/12/05 12:18:33;;;;;;;30.98;16.95;;;2.80;99.90;;;;;;5012163;28;20022;-74
2021/12/05 12:21:04;;;;;;;30.48;16.67;;;2.80;99.90;;;;;;5015221;28;20034;-75
2021/12/05 12:23:30;;;;;;;29.35;16.77;;;2.80;99.90;;;;;;5015027;28;20435;-75
2021/12/05 12:26:01;;;;;;;30.17;16.10;;;2.70;99.90;;;;;;5015912;28;20022;-76
2021/12/05 12:28:27;;;;;;;33.10;18.92;;;2.80;99.90;;;;;;5009091;28;20097;-76
2021/12/05 12:30:58;;;;;;;32.17;17.25;;;2.80;99.90;;;;;;5023838;28;20560;-76
2021/12/05 12:33:34;;;;;;;35.25;18.98;;;2.80;99.90;;;;;;5019893;28;20022;-73
2021/12/05 12:36:00;;;;;;;36.15;18.98;;;2.80;99.90;;;;;;5020764;28;20480;-76
2021/12/05 12:38:33;;;;;;;37.13;18.83;;;2.80;99.90;;;;;;5015356;28;20061;-75
2021/12/05 12:41:12;;;;;;;39.33;20.42;;;2.80;99.90;;;;;;5021028;28;20029;-75
2021/12/05 12:43:46;;;;;;;40.35;19.58;;;2.80;99.90;;;;;;5017240;28;20029;-76
2021/12/05 12:46:23;;;;;;;41.72;20.38;;;2.70;99.90;;;;;;5022018;28;20171;-75
2021/12/05 12:48:52;;;;;;;38.13;20.17;;;2.60;99.90;;;;;;5011767;28;20030;-75
2021/12/05 12:51:29;;;;;;;36.38;18.88;;;2.70;99.90;;;;;;5015459;28;20022;-75
2021/12/05 12:53:58;;;;;;;40.33;19.90;;;2.60;99.90;;;;;;5014067;28;20490;-77
2021/12/05 12:56:24;;;;;;;37.28;19.10;;;2.70;99.90;;;;;;5017397;28;20124;-75
2021/12/05 12:58:54;;;;;;;40.95;19.52;;;2.70;99.90;;;;;;5017098;28;20888;-74
2021/12/05 13:04:50;;;;;;;40.45;19.88;;;2.70;99.90;;;;;;5013803;28;20037;-74
2021/12/05 13:12:41;;;;;;;133.10;69.32;;;2.70;99.90;;;;;;5014175;28;20029;-74
2021/12/05 13:15:11;;;;;;;398.08;210.73;;;2.70;99.90;;;;;;5021335;28;20041;-74
2021/12/05 13:17:39;;;;;;;119.40;55.75;;;2.70;99.90;;;;;;5020579;28;20502;-74
2021/12/05 13:20:06;;;;;;;282.95;124.30;;;2.60;99.90;;;;;;5015241;28;20683;-74
2021/12/05 13:22:31;;;;;;;102.40;48.53;;;2.70;99.90;;;;;;5013789;28;20033;-74
2021/12/05 13:25:15;;;;;;;50.42;25.48;;;2.70;99.90;;;;;;5012948;28;20034;-76
2021/12/05 13:27:40;;;;;;;47.58;23.48;;;2.70;99.90;;;;;;5017903;28;20108;-73
2021/12/05 13:30:08;;;;;;;44.33;23.23;;;2.70;99.90;;;;;;5019893;28;20323;-75
2021/12/05 13:32:35;;;;;;;45.67;22.05;;;2.70;99.90;;;;;;5016233;28;20090;-73
2021/12/05 13:35:06;;;;;;;42.95;22.17;;;2.70;99.90;;;;;;5015318;28;20777;-74
2021/12/05 13:37:46;;;;;;;43.08;21.38;;;2.70;99.90;;;;;;5016985;28;20034;-76
2021/12/05 13:40:18;;;;;;;44.60;22.90;;;2.70;99.90;;;;;;5018553;28;20036;-75
2021/12/05 13:42:57;;;;;;;43.50;22.42;;;2.70;99.90;;;;;;5016121;28;20100;-74
2021/12/05 13:45:31;;;;;;;44.53;21.27;;;2.70;99.90;;;;;;5013562;28;20123;-75
2021/12/05 13:48:00;;;;;;;42.95;22.08;;;2.60;99.90;;;;;;5020280;28;20420;-75
2021/12/05 13:50:33;;;;;;;42.45;21.00;;;2.70;99.90;;;;;;5013808;28;20030;-75
2021/12/05 13:53:24;;;;;;;44.50;21.88;;;2.70;99.90;;;;;;5017643;28;20093;-74
2021/12/05 13:55:51;;;;;;;;;;;2.70;99.90;;;;;;5022730;28;20022;-74
2021/12/05 13:58:28;;;;;;;43.03;20.05;;;2.70;99.90;;;;;;5022576;28;21720;-75
2021/12/05 14:01:05;;;;;;;43.42;21.27;;;2.60;99.90;;;;;;5002571;28;20046;-74
2021/12/05 14:04:01;;;;;;;45.97;23.08;;;2.60;99.90;;;;;;5013540;28;20033;-76
2021/12/05 14:06:53;;;;;;;42.58;22.00;;;2.60;99.90;;;;;;5018025;28;20108;-74
2021/12/05 14:09:20;;;;;;;47.30;22.30;;;2.60;99.90;;;;;;5021831;28;20087;-75
2021/12/05 14:11:55;;;;;;;44.22;22.50;;;2.60;99.90;;;;;;5014332;28;20040;-74
2021/12/05 14:14:45;;;;;;;41.60;21.25;;;2.50;99.90;;;;;;5015842;28;20068;-74
2021/12/05 14:17:23;;;;;;;40.17;19.90;;;2.50;99.90;;;;;;5000684;28;20943;-75
2021/12/05 14:19:56;;;;;;;40.03;20.08;;;2.50;99.90;;;;;;5019480;28;20044;-76
2021/12/05 14:22:25;;;;;;;40.83;20.85;;;2.50;99.90;;;;;;4998328;28;20029;-73
2021/12/05 14:24:54;;;;;;;40.30;20.20;;;2.50;99.90;;;;;;5015082;28;20113;-74
2021/12/05 14:27:27;;;;;;;43.53;21.95;;;2.40;99.90;;;;;;5018598;28;20069;-74
2021/12/05 14:29:54;;;;;;;40.03;20.63;;;2.40;99.90;;;;;;5019087;28;20113;-75
2021/12/05 14:32:23;;;;;;;42.67;20.38;;;2.40;99.90;;;;;;5016001;28;20403;-75
2021/12/05 14:34:57;;;;;;;42.55;20.67;;;2.30;99.90;;;;;;5016301;28;20076;-75
2021/12/05 14:37:25;;;;;;;43.03;20.60;;;2.30;99.90;;;;;;5022804;28;20026;-72
2021/12/05 14:39:55;;;;;;;38.17;19.73;;;2.40;99.90;;;;;;5015532;28;20104;-72
2021/12/05 14:42:24;;;;;;;42.63;20.63;;;2.40;99.90;;;;;;5022269;28;20017;-75
2021/12/05 14:44:54;;;;;;;39.70;20.33;;;2.40;99.90;;;;;;5000376;28;20280;-74
2021/12/05 14:47:23;;;;;;;44.20;21.58;;;2.40;99.90;;;;;;5012350;28;20030;-74
2021/12/05 14:49:52;;;;;;;40.97;20.95;;;2.40;99.90;;;;;;5000076;28;20034;-74
2021/12/05 14:52:26;;;;;;;39.17;19.65;;;2.30;99.90;;;;;;5018211;28;20013;-74
2021/12/05 14:54:53;;;;;;;37.63;18.75;;;2.30;99.90;;;;;;5020072;28;20021;-74
2021/12/05 14:57:24;;;;;;;36.55;19.02;;;2.20;99.90;;;;;;5023073;28;20026;-75
2021/12/05 14:59:57;;;;;;;43.15;20.80;;;2.20;99.90;;;;;;5019144;28;20081;-75
2021/12/05 15:02:24;;;;;;;40.90;20.25;;;2.20;99.90;;;;;;5022416;28;20025;-75
2021/12/05 15:04:52;;;;;;;42.03;20.65;;;2.20;99.90;;;;;;5016016;28;20025;-75
2021/12/05 15:07:20;;;;;;;44.75;21.33;;;2.20;99.90;;;;;;5017939;28;20041;-74
2021/12/05 15:09:49;;;;;;;34.70;18.13;;;2.10;99.90;;;;;;5001615;28;20026;-74
2021/12/05 15:12:27;;;;;;;38.80;18.73;;;2.10;99.90;;;;;;5017930;28;20064;-73
2021/12/05 15:14:57;;;;;;;39.22;19.58;;;2.10;99.90;;;;;;5023712;28;20100;-73
2021/12/05 15:17:26;;;;;;;41.65;20.40;;;2.00;99.90;;;;;;5016446;28;20057;-73
2021/12/05 15:19:55;;;;;;;36.20;17.77;;;2.00;99.90;;;;;;5024035;28;20487;-73
2021/12/05 15:22:21;;;;;;;35.83;18.55;;;2.00;99.90;;;;;;5015920;28;20088;-74
2021/12/05 15:24:56;;;;;;;38.28;18.95;;;2.00;99.90;;;;;;5022970;28;20040;-74
2021/12/05 15:27:24;;;;;;;38.92;18.17;;;2.00;99.90;;;;;;5016521;28;20025;-73
2021/12/05 15:29:56;;;;;;;39.25;19.33;;;2.00;99.90;;;;;;5015875;28;20037;-74
2021/12/05 15:32:25;;;;;;;37.35;18.77;;;1.90;99.90;;;;;;5016197;28;20022;-74
2021/12/05 15:34:54;;;;;;;37.90;17.98;;;1.90;99.90;;;;;;4994013;28;20034;-73
2021/12/05 15:37:20;;;;;;;41.30;19.88;;;1.90;99.90;;;;;;5013305;28;20053;-73
2021/12/05 15:39:48;;;;;;;36.97;18.13;;;1.90;99.90;;;;;;5022887;28;20064;-73
2021/12/05 15:42:26;;;;;;;42.30;20.02;;;1.90;99.90;;;;;;5016290;28;20030;-73
2021/12/05 15:44:55;;;;;;;35.85;18.50;;;1.90;99.90;;;;;;5020953;28;20030;-73
2021/12/05 15:47:32;;;;;;;36.78;18.23;;;1.90;99.90;;;;;;5019488;28;20056;-72
2021/12/05 15:50:19;;;;;;;40.67;19.88;;;1.90;99.90;;;;;;5019213;28;20100;-73
2021/12/05 15:52:50;;;;;;;38.45;18.98;;;1.90;99.90;;;;;;5018542;28;20025;-73
2021/12/05 15:55:19;;;;;;;42.03;20.55;;;1.90;99.90;;;;;;5017364;28;20361;-72
2021/12/05 15:57:49;;;;;;;39.60;20.08;;;2.10;99.90;;;;;;5017980;28;20072;-73
2021/12/05 16:00:31;;;;;;;43.20;20.75;;;2.10;99.90;;;;;;5016779;28;20030;-74
2021/12/05 16:03:03;;;;;;;38.20;20.25;;;2.10;99.90;;;;;;5013582;28;20033;-72
2021/12/05 16:05:30;;;;;;;40.38;19.73;;;2.10;99.90;;;;;;5014760;28;20759;-73
2021/12/05 16:08:11;;;;;;;45.42;20.27;;;2.00;99.90;;;;;;5022488;28;20033;-73
2021/12/05 16:10:43;;;;;;;38.30;19.25;;;2.10;99.90;;;;;;5000214;28;20108;-73
2021/12/05 16:13:17;;;;;;;45.65;19.90;;;2.10;99.90;;;;;;5018419;28;20041;-73
2021/12/05 16:15:45;;;;;;;38.47;17.80;;;2.00;99.90;;;;;;5023285;28;20033;-75
2021/12/05 16:18:14;;;;;;;38.10;18.75;;;2.00;99.90;;;;;;5025277;28;20132;-75
2021/12/05 16:20:45;;;;;;;37.92;19.33;;;1.90;99.90;;;;;;5019807;28;20061;-75
2021/12/05 16:23:26;;;;;;;36.33;18.27;;;1.90;99.90;;;;;;5016629;28;20034;-75
2021/12/05 16:26:00;;;;;;;40.65;18.55;;;1.90;99.90;;;;;;5017814;28;20038;-72
2021/12/05 16:28:37;;;;;;;36.63;18.92;;;1.90;99.90;;;;;;5019460;28;20554;-73
2021/12/05 16:31:19;;;;;;;38.40;20.45;;;1.80;99.90;;;;;;5015007;28;20053;-73
2021/12/05 16:33:55;;;;;;;37.60;18.42;;;1.90;99.90;;;;;;5022716;28;20045;-75
2021/12/05 16:36:27;;;;;;;45.05;20.40;;;1.80;99.90;;;;;;5016563;28;20153;-73
2021/12/05 16:38:53;;;;;;;36.22;19.42;;;1.80;99.90;;;;;;5015861;28;20430;-73
2021/12/05 16:41:30;;;;;;;42.00;20.38;;;1.80;99.90;;;;;;5022634;28;20022;-74
2021/12/05 16:44:09;;;;;;;44.95;20.75;;;1.80;99.90;;;;;;5021141;28;20022;-74
2021/12/05 16:46:45;;;;;;;42.20;20.52;;;1.70;99.90;;;;;;5014784;28;20025;-75
2021/12/05 16:49:18;;;;;;;39.30;19.67;;;1.80;99.90;;;;;;5016519;28;20029;-73
2021/12/05 16:51:53;;;;;;;42.85;20.20;;;1.80;99.90;;;;;;5021009;28;20083;-74
2021/12/05 16:54:24;;;;;;;41.50;20.73;;;1.80;99.90;;;;;;5008227;28;20022;-74
2021/12/05 16:57:02;;;;;;;39.33;18.95;;;1.80;99.90;;;;;;5005388;28;20029;-74
2021/12/05 16:59:32;;;;;;;45.38;22.15;;;1.80;99.90;;;;;;5019111;28;20137;-73
2021/12/05 17:02:20;;;;;;;47.70;21.75;;;1.80;99.90;;;;;;5017387;28;20053;-74
2021/12/05 17:04:56;;;;;;;43.45;20.50;;;1.80;99.90;;;;;;5018558;28;20034;-77
2021/12/05 17:07:42;;;;;;;46.03;21.27;;;1.90;99.90;;;;;;5032902;28;20049;-74
2021/12/05 17:10:37;;;;;;;47.60;20.10;;;2.00;99.90;;;;;;5023112;28;20033;-75
2021/12/05 17:13:23;;;;;;;47.03;22.05;;;2.00;99.90;;;;;;5020574;28;20113;-74
2021/12/05 17:16:18;;;;;;;44.22;21.38;;;1.90;99.90;;;;;;5024373;28;20014;-74
2021/12/05 17:18:58;;;;;;;48.90;22.52;;;1.90;99.90;;;;;;5016247;28;20515;-75
2021/12/05 17:21:33;;;;;;;48.03;21.00;;;1.90;99.90;;;;;;5015764;28;20404;-76
2021/12/05 17:24:01;;;;;;;45.85;22.65;;;1.90;99.90;;;;;;5016025;28;20018;-76
2021/12/05 17:26:46;;;;;;;43.42;21.25;;;1.90;99.90;;;;;;5023196;28;20026;-75
2021/12/05 17:29:24;;;;;;;49.38;22.70;;;2.00;99.90;;;;;;5021893;28;20022;-75
2021/12/05 17:32:08;;;;;;;56.25;23.73;;;2.00;99.90;;;;;;5009226;28;20041;-76
2021/12/05 17:34:45;;;;;;;48.53;21.15;;;2.00;99.90;;;;;;5016291;28;20134;-75
2021/12/05 17:37:14;;;;;;;46.55;22.83;;;2.00;99.90;;;;;;5017222;28;20076;-76
2021/12/05 17:39:42;;;;;;;45.95;22.50;;;2.00;99.90;;;;;;5019105;28;20026;-75
2021/12/05 17:42:30;;;;;;;51.13;22.90;;;2.00;99.90;;;;;;5017142;28;20029;-74
2021/12/05 17:44:58;;;;;;;50.05;23.13;;;2.00;99.90;;;;;;5020218;28;20026;-75
2021/12/05 17:47:26;;;;;;;53.55;24.45;;;2.00;99.90;;;;;;5019622;28;20105;-75
2021/12/05 17:49:54;;;;;;;49.38;22.92;;;2.00;99.90;;;;;;5018263;28;20046;-76
2021/12/05 17:52:24;;;;;;;47.45;21.63;;;2.00;99.90;;;;;;5013231;28;20029;-75
2021/12/05 17:54:59;;;;;;;45.25;23.27;;;2.00;99.90;;;;;;5018670;28;20506;-75
2021/12/05 17:57:49;;;;;;;46.28;21.60;;;2.00;99.90;;;;;;5002042;28;20029;-75
2021/12/05 18:03:05;;;;;;;48.70;21.85;;;2.10;99.90;;;;;;5014416;28;20381;-75
2021/12/05 18:05:44;;;;;;;49.60;23.38;;;2.00;99.90;;;;;;5017084;28;20029;-75
2021/12/05 18:08:17;;;;;;;55.92;23.75;;;2.00;99.90;;;;;;5017375;28;20480;-76
2021/12/05 18:10:49;;;;;;;49.33;21.88;;;2.00;99.90;;;;;;5013611;28;20117;-74
2021/12/05 18:13:15;;;;;;;56.03;24.42;;;2.00;99.90;;;;;;5020290;28;20076;-74
2021/12/05 18:15:50;;;;;;;51.38;24.33;;;2.00;99.90;;;;;;5016467;28;20026;-74
2021/12/05 18:18:17;;;;;;;59.00;25.25;;;2.00;99.90;;;;;;5022648;28;20030;-74
2021/12/05 18:20:43;;;;;;;48.50;22.55;;;2.00;99.90;;;;;;5015610;28;20022;-75
2021/12/05 18:23:20;;;;;;;54.47;24.10;;;2.10;99.90;;;;;;5018008;28;20109;-74
2021/12/05 18:25:47;;;;;;;52.50;23.42;;;2.10;99.90;;;;;;5022081;28;20040;-73
2021/12/05 18:28:13;;;;;;;54.92;25.27;;;2.10;99.90;;;;;;5015334;28;20112;-73
2021/12/05 18:30:41;;;;;;;52.67;24.88;;;2.00;99.90;;;;;;5019591;28;20033;-74
2021/12/05 18:33:09;;;;;;;54.88;25.85;;;2.00;99.90;;;;;;5017154;28;20032;-72